createdAt,value
2017-03-24T00:00:02.861Z,99.42
2017-03-24T00:00:12.958Z,99.33
2017-03-24T00:00:22.763Z,99.23
2017-03-24T00:00:32.854Z,99.23
2017-03-24T00:00:42.656Z,99.14
2017-03-24T00:00:52.460Z,99.04
2017-03-24T00:01:02.548Z,98.95
2017-03-24T00:01:12.352Z,98.85
2017-03-24T00:01:22.444Z,98.85
2017-03-24T00:01:32.250Z,98.76
2017-03-24T00:01:42.340Z,98.66
2017-03-24T00:01:52.431Z,98.66
2017-03-24T00:02:02.290Z,98.57
2017-03-24T00:02:12.378Z,98.57
2017-03-24T00:02:22.469Z,98.47
2017-03-24T00:02:32.558Z,98.47
2017-03-24T00:02:42.369Z,98.47
2017-03-24T00:02:52.466Z,98.47
2017-03-24T00:03:02.563Z,98.57
2017-03-24T00:03:12.372Z,98.57
2017-03-24T00:03:22.477Z,98.66
2017-03-24T00:03:32.186Z,98.66
2017-03-24T00:03:42.294Z,98.76
2017-03-24T00:03:52.392Z,98.76
2017-03-24T00:04:02.485Z,98.85
2017-03-24T00:04:12.594Z,98.95
2017-03-24T00:04:22.694Z,98.95
2017-03-24T00:04:32.563Z,99.04
2017-03-24T00:04:42.081Z,99.14
2017-03-24T00:04:52.175Z,99.23
2017-03-24T00:05:01.978Z,99.42
2017-03-24T00:05:11.784Z,99.61
2017-03-24T00:05:21.586Z,99.71
2017-03-24T00:05:31.100Z,99.89
2017-03-24T00:05:40.661Z,99.99
2017-03-24T00:05:50.751Z,99.99
2017-03-24T00:06:00.559Z,99.99
2017-03-24T00:06:10.663Z,99.99
2017-03-24T00:06:20.770Z,99.99
2017-03-24T00:06:30.859Z,99.99
2017-03-24T00:06:40.387Z,99.99
2017-03-24T00:06:50.196Z,99.99
2017-03-24T00:07:00.022Z,99.99
2017-03-24T00:07:09.831Z,99.99
2017-03-24T00:07:19.929Z,99.99
2017-03-24T00:07:30.027Z,99.99
2017-03-24T00:07:40.121Z,99.99
2017-03-24T00:07:49.933Z,99.99
2017-03-24T00:08:00.032Z,99.99
2017-03-24T00:08:09.306Z,99.99
2017-03-24T00:08:19.409Z,99.99
2017-03-24T00:08:29.545Z,99.99
2017-03-24T00:08:39.636Z,99.99
2017-03-24T00:08:49.736Z,99.99
2017-03-24T00:08:59.832Z,99.99
2017-03-24T00:09:09.347Z,99.99
2017-03-24T00:09:19.449Z,99.99
2017-03-24T00:09:29.263Z,99.99
2017-03-24T00:09:39.071Z,99.99
2017-03-24T00:09:49.166Z,99.99
2017-03-24T00:09:59.264Z,99.99
2017-03-24T00:10:09.079Z,99.99
2017-03-24T00:10:18.595Z,99.89
2017-03-24T00:10:28.680Z,99.8
2017-03-24T00:10:38.767Z,99.71
2017-03-24T00:10:48.870Z,99.52
2017-03-24T00:10:58.681Z,99.33
2017-03-24T00:11:08.771Z,99.14
2017-03-24T00:11:18.864Z,98.95
2017-03-24T00:11:28.955Z,98.76
2017-03-24T00:11:38.765Z,98.66
2017-03-24T00:11:48.854Z,98.47
2017-03-24T00:11:58.947Z,98.38
2017-03-24T00:12:09.038Z,98.28
2017-03-24T00:12:19.130Z,98.28
2017-03-24T00:12:29.226Z,98.28
2017-03-24T00:12:39.326Z,98.38
2017-03-24T00:12:49.140Z,98.38
2017-03-24T00:12:59.239Z,98.47
2017-03-24T00:13:09.071Z,98.47
2017-03-24T00:13:19.169Z,98.57
2017-03-24T00:13:29.271Z,98.57
2017-03-24T00:13:39.364Z,98.66
2017-03-24T00:13:49.171Z,98.66
2017-03-24T00:13:59.268Z,98.76
2017-03-24T00:14:08.793Z,98.85
2017-03-24T00:14:18.892Z,98.95
2017-03-24T00:14:28.988Z,99.04
2017-03-24T00:14:38.794Z,99.14
2017-03-24T00:14:48.886Z,99.23
2017-03-24T00:14:58.694Z,99.23
2017-03-24T00:15:08.787Z,99.33
2017-03-24T00:15:18.932Z,99.33
2017-03-24T00:15:29.025Z,99.33
2017-03-24T00:15:39.113Z,99.33
2017-03-24T00:15:48.920Z,99.33
2017-03-24T00:15:59.019Z,99.33
2017-03-24T00:16:08.860Z,99.42
2017-03-24T00:16:18.951Z,99.42
2017-03-24T00:16:29.045Z,99.42
2017-03-24T00:16:39.132Z,99.52
2017-03-24T00:16:48.943Z,99.52
2017-03-24T00:16:59.042Z,99.61
2017-03-24T00:17:08.848Z,99.61
2017-03-24T00:17:18.973Z,99.71
2017-03-24T00:17:29.067Z,99.8
2017-03-24T00:17:39.169Z,99.8
2017-03-24T00:17:48.694Z,99.89
2017-03-24T00:17:58.793Z,99.89
2017-03-24T00:18:08.892Z,99.99
2017-03-24T00:18:19.049Z,99.99
2017-03-24T00:18:29.153Z,99.99
2017-03-24T00:18:38.686Z,99.99
2017-03-24T00:18:48.498Z,99.99
2017-03-24T00:18:58.590Z,99.99
2017-03-24T00:19:08.711Z,99.99
2017-03-24T00:19:18.804Z,99.99
2017-03-24T00:19:28.901Z,99.99
2017-03-24T00:19:38.710Z,99.99
2017-03-24T00:19:48.804Z,99.99
2017-03-24T00:19:58.901Z,99.99
2017-03-24T00:20:08.417Z,99.99
2017-03-24T00:20:18.220Z,99.99
2017-03-24T00:20:28.310Z,99.99
2017-03-24T00:20:38.112Z,99.99
2017-03-24T00:20:48.200Z,99.99
2017-03-24T00:20:58.001Z,99.99
2017-03-24T00:21:08.092Z,99.99
2017-03-24T00:21:18.193Z,99.99
2017-03-24T00:21:27.717Z,99.99
2017-03-24T00:21:37.806Z,99.99
2017-03-24T00:21:47.909Z,99.99
2017-03-24T00:21:58.007Z,99.99
2017-03-24T00:22:07.813Z,99.99
2017-03-24T00:22:17.949Z,99.99
2017-03-24T00:22:27.473Z,99.99
2017-03-24T00:22:37.323Z,99.99
2017-03-24T00:22:47.428Z,99.99
2017-03-24T00:22:57.527Z,99.99
2017-03-24T00:23:07.334Z,99.99
2017-03-24T00:23:17.449Z,99.99
2017-03-24T00:23:27.554Z,99.99
2017-03-24T00:23:37.380Z,99.99
2017-03-24T00:23:47.474Z,99.99
2017-03-24T00:23:57.583Z,99.99
2017-03-24T00:24:07.393Z,99.99
2017-03-24T00:24:17.204Z,99.99
2017-03-24T00:24:27.296Z,99.99
2017-03-24T00:24:37.393Z,99.99
2017-03-24T00:24:47.195Z,99.99
2017-03-24T00:24:57.291Z,99.99
2017-03-24T00:25:07.398Z,99.99
2017-03-24T00:25:17.489Z,99.99
2017-03-24T00:25:27.583Z,99.99
2017-03-24T00:25:37.668Z,99.99
2017-03-24T00:25:47.474Z,99.99
2017-03-24T00:25:57.567Z,99.99
2017-03-24T00:26:07.667Z,99.99
2017-03-24T00:26:17.470Z,99.99
2017-03-24T00:26:27.279Z,99.99
2017-03-24T00:26:37.076Z,99.99
2017-03-24T00:26:47.172Z,99.99
2017-03-24T00:26:57.270Z,99.99
2017-03-24T00:27:07.368Z,99.99
2017-03-24T00:27:17.502Z,99.99
2017-03-24T00:27:27.610Z,99.99
2017-03-24T00:27:37.714Z,99.99
2017-03-24T00:27:47.817Z,99.99
2017-03-24T00:27:57.626Z,99.99
2017-03-24T00:28:07.439Z,99.99
2017-03-24T00:28:17.257Z,99.99
2017-03-24T00:28:27.354Z,99.99
2017-03-24T00:28:37.171Z,99.99
2017-03-24T00:28:47.279Z,99.99
2017-03-24T00:28:57.129Z,99.99
2017-03-24T00:29:06.944Z,99.99
2017-03-24T00:29:17.035Z,99.99
2017-03-24T00:29:27.139Z,99.99
2017-03-24T00:29:37.235Z,99.99
2017-03-24T00:29:47.047Z,99.99
2017-03-24T00:29:57.144Z,99.99
2017-03-24T00:30:06.962Z,99.99
2017-03-24T00:30:17.057Z,99.99
2017-03-24T00:30:26.864Z,99.99
2017-03-24T00:30:36.956Z,99.99
2017-03-24T00:30:46.763Z,99.99
2017-03-24T00:30:56.570Z,99.99
2017-03-24T00:31:06.662Z,99.99
2017-03-24T00:31:16.465Z,99.99
2017-03-24T00:31:26.268Z,99.99
2017-03-24T00:31:36.377Z,99.99
2017-03-24T00:31:46.183Z,99.99
2017-03-24T00:31:55.987Z,99.99
2017-03-24T00:32:06.093Z,99.99
2017-03-24T00:32:15.896Z,99.99
2017-03-24T00:32:25.948Z,99.99
2017-03-24T00:32:35.763Z,99.99
2017-03-24T00:32:45.285Z,99.99
2017-03-24T00:32:55.376Z,99.99
2017-03-24T00:33:05.465Z,99.99
2017-03-24T00:33:15.563Z,99.99
2017-03-24T00:33:25.670Z,99.99
2017-03-24T00:33:35.762Z,99.99
2017-03-24T00:33:45.863Z,99.99
2017-03-24T00:33:55.958Z,99.99
2017-03-24T00:34:06.060Z,99.99
2017-03-24T00:34:16.154Z,99.99
2017-03-24T00:34:25.967Z,99.99
2017-03-24T00:34:35.498Z,99.99
2017-03-24T00:34:45.591Z,99.99
2017-03-24T00:34:55.690Z,99.99
2017-03-24T00:35:05.213Z,99.99
2017-03-24T00:35:15.310Z,99.99
2017-03-24T00:35:25.416Z,99.99
2017-03-24T00:35:35.221Z,99.99
2017-03-24T00:35:45.317Z,99.99
2017-03-24T00:35:55.413Z,99.99
2017-03-24T00:36:05.500Z,99.99
2017-03-24T00:36:15.589Z,99.99
2017-03-24T00:36:25.452Z,99.99
2017-03-24T00:36:35.251Z,99.99
2017-03-24T00:36:45.383Z,99.99
2017-03-24T00:36:55.475Z,99.99
2017-03-24T00:37:05.281Z,99.99
2017-03-24T00:37:15.376Z,99.99
2017-03-24T00:37:25.469Z,99.99
2017-03-24T00:37:35.282Z,99.99
2017-03-24T00:37:45.377Z,99.99
2017-03-24T00:37:55.179Z,99.99
2017-03-24T00:38:05.274Z,99.99
2017-03-24T00:38:14.792Z,99.99
2017-03-24T00:38:24.879Z,99.99
2017-03-24T00:38:34.974Z,99.99
2017-03-24T00:38:45.077Z,99.99
2017-03-24T00:38:54.893Z,99.99
2017-03-24T00:39:05.004Z,99.99
2017-03-24T00:39:15.105Z,99.99
2017-03-24T00:39:24.642Z,99.99
2017-03-24T00:39:34.735Z,99.99
2017-03-24T00:39:44.839Z,99.99
2017-03-24T00:39:54.648Z,99.99
2017-03-24T00:40:04.740Z,99.99
2017-03-24T00:40:14.541Z,99.99
2017-03-24T00:40:24.640Z,99.99
2017-03-24T00:40:34.731Z,99.99
2017-03-24T00:40:44.540Z,99.99
2017-03-24T00:40:54.625Z,99.99
2017-03-24T00:41:04.727Z,99.99
2017-03-24T00:41:14.816Z,99.99
2017-03-24T00:41:24.908Z,99.99
2017-03-24T00:41:34.717Z,99.99
2017-03-24T00:41:44.822Z,99.99
2017-03-24T00:41:54.632Z,99.99
2017-03-24T00:42:04.732Z,99.99
2017-03-24T00:42:14.831Z,99.99
2017-03-24T00:42:24.926Z,99.99
2017-03-24T00:42:35.016Z,99.99
2017-03-24T00:42:45.128Z,99.99
2017-03-24T00:42:55.227Z,99.99
2017-03-24T00:43:05.362Z,99.99
2017-03-24T00:43:15.475Z,99.99
2017-03-24T00:43:25.569Z,99.99
2017-03-24T00:43:35.373Z,99.99
2017-03-24T00:43:45.480Z,99.99
2017-03-24T00:43:55.297Z,99.99
2017-03-24T00:44:05.104Z,99.99
2017-03-24T00:44:15.203Z,99.99
2017-03-24T00:44:25.013Z,99.99
2017-03-24T00:44:34.864Z,99.99
2017-03-24T00:44:44.954Z,99.99
2017-03-24T00:44:55.046Z,99.99
2017-03-24T00:45:05.143Z,99.99
2017-03-24T00:45:15.227Z,99.99
2017-03-24T00:45:25.316Z,99.99
2017-03-24T00:45:35.116Z,99.99
2017-03-24T00:45:44.924Z,99.99
2017-03-24T00:45:55.021Z,99.99
2017-03-24T00:46:04.834Z,99.99
2017-03-24T00:46:14.649Z,99.99
2017-03-24T00:46:24.741Z,99.99
2017-03-24T00:46:34.546Z,99.99
2017-03-24T00:46:44.361Z,99.99
2017-03-24T00:46:54.164Z,99.99
2017-03-24T00:47:04.258Z,99.99
2017-03-24T00:47:14.348Z,99.99
2017-03-24T00:47:24.452Z,99.99
2017-03-24T00:47:34.262Z,99.99
2017-03-24T00:47:44.366Z,99.99
2017-03-24T00:47:54.177Z,99.99
2017-03-24T00:48:04.311Z,99.99
2017-03-24T00:48:14.123Z,99.99
2017-03-24T00:48:24.227Z,99.99
2017-03-24T00:48:34.322Z,99.99
2017-03-24T00:48:44.128Z,99.99
2017-03-24T00:48:53.653Z,99.99
2017-03-24T00:49:03.744Z,99.99
2017-03-24T00:49:13.841Z,99.99
2017-03-24T00:49:23.939Z,99.99
2017-03-24T00:49:33.745Z,99.99
2017-03-24T00:49:43.553Z,99.99
2017-03-24T00:49:53.411Z,99.99
2017-03-24T00:50:03.226Z,99.99
2017-03-24T00:50:12.751Z,99.99
2017-03-24T00:50:22.850Z,99.99
2017-03-24T00:50:32.948Z,99.99
2017-03-24T00:50:42.756Z,99.99
2017-03-24T00:50:52.851Z,99.99
2017-03-24T00:51:02.939Z,99.99
2017-03-24T00:51:13.034Z,99.99
2017-03-24T00:51:23.125Z,99.99
2017-03-24T00:51:33.221Z,99.99
2017-03-24T00:51:43.327Z,99.99
2017-03-24T00:51:53.430Z,99.99
2017-03-24T00:52:03.233Z,99.99
2017-03-24T00:52:12.750Z,99.99
2017-03-24T00:52:22.843Z,99.99
2017-03-24T00:52:32.363Z,99.99
2017-03-24T00:52:42.456Z,99.99
2017-03-24T00:52:52.316Z,99.99
2017-03-24T00:53:02.128Z,99.99
2017-03-24T00:53:12.227Z,99.99
2017-03-24T00:53:22.328Z,99.99
2017-03-24T00:53:31.855Z,99.99
2017-03-24T00:53:41.668Z,99.99
2017-03-24T00:53:51.771Z,99.99
2017-03-24T00:54:01.871Z,99.99
2017-03-24T00:54:11.689Z,99.99
2017-03-24T00:54:21.802Z,99.99
2017-03-24T00:54:31.610Z,99.99
2017-03-24T00:54:41.701Z,99.99
2017-03-24T00:54:51.804Z,99.99
2017-03-24T00:55:01.667Z,99.99
2017-03-24T00:55:11.475Z,99.99
2017-03-24T00:55:21.282Z,99.89
2017-03-24T00:55:31.084Z,99.89
2017-03-24T00:55:41.180Z,99.8
2017-03-24T00:55:51.279Z,99.8
2017-03-24T00:56:01.365Z,99.89
2017-03-24T00:56:11.167Z,99.99
2017-03-24T00:56:21.254Z,99.99
2017-03-24T00:56:31.066Z,99.99
2017-03-24T00:56:41.169Z,99.99
2017-03-24T00:56:51.261Z,99.99
2017-03-24T00:57:01.350Z,99.99
2017-03-24T00:57:11.438Z,99.99
2017-03-24T00:57:21.546Z,99.99
2017-03-24T00:57:31.647Z,99.99
2017-03-24T00:57:41.455Z,99.99
2017-03-24T00:57:51.551Z,99.99
2017-03-24T00:58:01.651Z,99.99
2017-03-24T00:58:11.739Z,99.99
2017-03-24T00:58:21.896Z,99.99
2017-03-24T00:58:31.705Z,99.99
2017-03-24T00:58:41.808Z,99.99
2017-03-24T00:58:51.913Z,99.8
2017-03-24T00:59:02.011Z,99.52
2017-03-24T00:59:11.530Z,99.33
2017-03-24T00:59:21.345Z,99.14
2017-03-24T00:59:31.162Z,98.95
2017-03-24T00:59:41.260Z,98.76
2017-03-24T00:59:51.354Z,98.66
2017-03-24T01:00:01.454Z,98.47
2017-03-24T01:00:11.258Z,98.38
2017-03-24T01:00:20.777Z,98.28
2017-03-24T01:00:30.866Z,98.19
2017-03-24T01:00:40.953Z,98.19
2017-03-24T01:00:51.042Z,98.1
2017-03-24T01:01:01.141Z,98
2017-03-24T01:01:11.232Z,98.1
2017-03-24T01:01:21.033Z,98.1
2017-03-24T01:01:30.835Z,98.19
2017-03-24T01:01:40.641Z,98.28
2017-03-24T01:01:50.733Z,98.38
2017-03-24T01:02:00.827Z,98.57
2017-03-24T01:02:10.920Z,98.66
2017-03-24T01:02:21.011Z,98.85
2017-03-24T01:02:30.818Z,99.04
2017-03-24T01:02:40.913Z,99.14
2017-03-24T01:02:51.015Z,99.33
2017-03-24T01:03:01.125Z,99.33
2017-03-24T01:03:11.251Z,99.42
2017-03-24T01:03:21.065Z,99.52
2017-03-24T01:03:30.875Z,99.52
2017-03-24T01:03:40.972Z,99.52
2017-03-24T01:03:51.071Z,99.42
2017-03-24T01:04:01.179Z,99.33
2017-03-24T01:04:11.278Z,99.33
2017-03-24T01:04:21.379Z,99.42
2017-03-24T01:04:31.478Z,99.42
2017-03-24T01:04:41.578Z,99.52
2017-03-24T01:04:51.671Z,99.52
2017-03-24T01:05:01.199Z,99.42
2017-03-24T01:05:10.720Z,99.14
2017-03-24T01:05:20.524Z,98.66
2017-03-24T01:05:30.618Z,98.28
2017-03-24T01:05:40.727Z,97.91
2017-03-24T01:05:50.820Z,97.63
2017-03-24T01:06:00.914Z,97.44
2017-03-24T01:06:10.440Z,97.44
2017-03-24T01:06:20.540Z,97.34
2017-03-24T01:06:30.635Z,97.34
2017-03-24T01:06:40.722Z,97.34
2017-03-24T01:06:50.822Z,97.34
2017-03-24T01:07:00.914Z,97.44
2017-03-24T01:07:11.005Z,97.44
2017-03-24T01:07:21.111Z,97.25
2017-03-24T01:07:30.916Z,97.06
2017-03-24T01:07:40.443Z,96.78
2017-03-24T01:07:50.538Z,96.68
2017-03-24T01:08:00.627Z,96.49
2017-03-24T01:08:10.721Z,96.3
2017-03-24T01:08:20.530Z,96.02
2017-03-24T01:08:30.626Z,95.83
2017-03-24T01:08:40.734Z,95.54
2017-03-24T01:08:50.839Z,95.36
2017-03-24T01:09:00.941Z,95.17
2017-03-24T01:09:11.046Z,94.98
2017-03-24T01:09:20.869Z,94.79
2017-03-24T01:09:30.976Z,94.6
2017-03-24T01:09:40.789Z,94.37
2017-03-24T01:09:50.937Z,94.08
2017-03-24T01:10:01.031Z,93.8
2017-03-24T01:10:11.133Z,93.51
2017-03-24T01:10:21.235Z,93.23
2017-03-24T01:10:31.324Z,93.04
2017-03-24T01:10:41.414Z,92.76
2017-03-24T01:10:51.216Z,92.38
2017-03-24T01:11:01.309Z,92
2017-03-24T01:11:11.396Z,91.81
2017-03-24T01:11:21.489Z,91.53
2017-03-24T01:11:31.576Z,91.34
2017-03-24T01:11:41.663Z,91.24
2017-03-24T01:11:51.184Z,91.15
2017-03-24T01:12:01.278Z,91.15
2017-03-24T01:12:11.082Z,91.24
2017-03-24T01:12:20.913Z,91.24
2017-03-24T01:12:31.031Z,91.24
2017-03-24T01:12:40.851Z,91.24
2017-03-24T01:12:50.950Z,91.24
2017-03-24T01:13:01.054Z,91.34
2017-03-24T01:13:10.858Z,91.34
2017-03-24T01:13:20.680Z,91.43
2017-03-24T01:13:30.778Z,91.53
2017-03-24T01:13:40.873Z,91.62
2017-03-24T01:13:50.972Z,91.72
2017-03-24T01:14:00.783Z,91.81
2017-03-24T01:14:10.884Z,91.91
2017-03-24T01:14:20.699Z,91.91
2017-03-24T01:14:30.847Z,92
2017-03-24T01:14:40.942Z,92
2017-03-24T01:14:51.038Z,92
2017-03-24T01:15:00.854Z,92
2017-03-24T01:15:10.373Z,92
2017-03-24T01:15:20.174Z,91.91
2017-03-24T01:15:30.263Z,91.91
2017-03-24T01:15:40.071Z,91.81
2017-03-24T01:15:50.164Z,91.81
2017-03-24T01:16:00.256Z,91.81
2017-03-24T01:16:10.343Z,91.81
2017-03-24T01:16:20.148Z,91.77
2017-03-24T01:16:30.237Z,91.77
2017-03-24T01:16:40.332Z,91.77
2017-03-24T01:16:50.427Z,91.86
2017-03-24T01:17:00.521Z,91.86
2017-03-24T01:17:10.619Z,91.86
2017-03-24T01:17:20.705Z,91.86
2017-03-24T01:17:30.802Z,91.86
2017-03-24T01:17:40.897Z,91.77
2017-03-24T01:17:50.711Z,91.67
2017-03-24T01:18:00.519Z,91.67
2017-03-24T01:18:10.618Z,91.67
2017-03-24T01:18:20.713Z,91.77
2017-03-24T01:18:30.521Z,91.77
2017-03-24T01:18:40.326Z,91.86
2017-03-24T01:18:50.422Z,91.96
2017-03-24T01:19:00.518Z,92.05
2017-03-24T01:19:10.614Z,92.24
2017-03-24T01:19:20.724Z,92.33
2017-03-24T01:19:30.817Z,92.43
2017-03-24T01:19:40.905Z,92.52
2017-03-24T01:19:50.996Z,92.61
2017-03-24T01:20:00.808Z,92.71
2017-03-24T01:20:10.901Z,92.8
2017-03-24T01:20:20.702Z,92.9
2017-03-24T01:20:30.503Z,93.09
2017-03-24T01:20:40.604Z,93.28
2017-03-24T01:20:50.699Z,93.37
2017-03-24T01:21:00.791Z,93.56
2017-03-24T01:21:10.596Z,93.66
2017-03-24T01:21:20.725Z,93.75
2017-03-24T01:21:30.526Z,93.84
2017-03-24T01:21:40.339Z,93.94
2017-03-24T01:21:50.431Z,93.94
2017-03-24T01:22:00.523Z,93.94
2017-03-24T01:22:10.614Z,93.94
2017-03-24T01:22:20.707Z,93.84
2017-03-24T01:22:30.513Z,93.94
2017-03-24T01:22:40.614Z,94.03
2017-03-24T01:22:50.711Z,94.13
2017-03-24T01:23:00.528Z,94.22
2017-03-24T01:23:10.637Z,94.32
2017-03-24T01:23:20.743Z,94.51
2017-03-24T01:23:30.842Z,94.6
2017-03-24T01:23:40.947Z,94.79
2017-03-24T01:23:51.057Z,94.89
2017-03-24T01:24:01.151Z,95.07
2017-03-24T01:24:11.294Z,95.26
2017-03-24T01:24:21.099Z,95.36
2017-03-24T01:24:31.197Z,95.54
2017-03-24T01:24:41.285Z,95.73
2017-03-24T01:24:51.091Z,95.83
2017-03-24T01:25:01.209Z,96.02
2017-03-24T01:25:10.728Z,96.11
2017-03-24T01:25:20.815Z,96.3
2017-03-24T01:25:30.618Z,96.4
2017-03-24T01:25:40.713Z,96.59
2017-03-24T01:25:50.523Z,96.78
2017-03-24T01:26:00.607Z,96.87
2017-03-24T01:26:10.693Z,97.06
2017-03-24T01:26:20.784Z,97.15
2017-03-24T01:26:30.876Z,97.25
2017-03-24T01:26:40.975Z,97.34
2017-03-24T01:26:51.065Z,97.53
2017-03-24T01:27:00.869Z,97.53
2017-03-24T01:27:10.963Z,97.72
2017-03-24T01:27:20.771Z,97.81
2017-03-24T01:27:30.863Z,97.91
2017-03-24T01:27:40.970Z,98
2017-03-24T01:27:50.506Z,98
2017-03-24T01:28:00.608Z,98
2017-03-24T01:28:10.702Z,98
2017-03-24T01:28:19.945Z,98
2017-03-24T01:28:30.051Z,98
2017-03-24T01:28:40.147Z,98
2017-03-24T01:28:50.002Z,97.91
2017-03-24T01:29:00.095Z,97.81
2017-03-24T01:29:09.963Z,97.81
2017-03-24T01:29:19.778Z,97.91
2017-03-24T01:29:29.878Z,97.91
2017-03-24T01:29:39.683Z,98
2017-03-24T01:29:49.775Z,98
2017-03-24T01:29:59.871Z,98.1
2017-03-24T01:30:09.972Z,98.19
2017-03-24T01:30:19.493Z,98.19
2017-03-24T01:30:29.587Z,98.28
2017-03-24T01:30:39.680Z,98.38
2017-03-24T01:30:49.774Z,98.47
2017-03-24T01:30:59.863Z,98.57
2017-03-24T01:31:09.949Z,98.66
2017-03-24T01:31:20.041Z,98.66
2017-03-24T01:31:30.134Z,98.76
2017-03-24T01:31:39.650Z,98.85
2017-03-24T01:31:49.742Z,98.95
2017-03-24T01:31:59.829Z,99.04
2017-03-24T01:32:09.924Z,99.04
2017-03-24T01:32:20.027Z,99.14
2017-03-24T01:32:29.834Z,99.14
2017-03-24T01:32:39.979Z,99.14
2017-03-24T01:32:50.077Z,99.04
2017-03-24T01:32:59.886Z,99.04
2017-03-24T01:33:09.981Z,98.95
2017-03-24T01:33:20.080Z,98.95
2017-03-24T01:33:30.175Z,98.76
2017-03-24T01:33:39.976Z,98.47
2017-03-24T01:33:50.078Z,98.19
2017-03-24T01:34:00.172Z,98
2017-03-24T01:34:10.272Z,97.72
2017-03-24T01:34:20.368Z,97.53
2017-03-24T01:34:30.466Z,97.44
2017-03-24T01:34:40.565Z,97.25
2017-03-24T01:34:50.652Z,96.96
2017-03-24T01:35:00.746Z,96.68
2017-03-24T01:35:10.558Z,96.59
2017-03-24T01:35:20.358Z,96.49
2017-03-24T01:35:30.443Z,96.49
2017-03-24T01:35:40.543Z,96.49
2017-03-24T01:35:50.633Z,96.49
2017-03-24T01:36:00.718Z,96.49
2017-03-24T01:36:09.944Z,96.4
2017-03-24T01:36:19.750Z,96.4
2017-03-24T01:36:29.846Z,96.3
2017-03-24T01:36:39.936Z,96.3
2017-03-24T01:36:50.023Z,96.21
2017-03-24T01:37:00.112Z,96.11
2017-03-24T01:37:09.912Z,96.11
2017-03-24T01:37:19.720Z,96.02
2017-03-24T01:37:29.811Z,96.02
2017-03-24T01:37:39.623Z,96.11
2017-03-24T01:37:49.431Z,96.11
2017-03-24T01:37:59.528Z,96.21
2017-03-24T01:38:09.045Z,96.21
2017-03-24T01:38:18.851Z,96.3
2017-03-24T01:38:28.949Z,96.3
2017-03-24T01:38:39.049Z,96.4
2017-03-24T01:38:49.161Z,96.49
2017-03-24T01:38:59.257Z,96.68
2017-03-24T01:39:09.069Z,96.78
2017-03-24T01:39:19.174Z,96.87
2017-03-24T01:39:29.267Z,96.96
2017-03-24T01:39:39.359Z,97.15
2017-03-24T01:39:49.456Z,97.25
2017-03-24T01:39:59.551Z,97.34
2017-03-24T01:40:09.068Z,97.44
2017-03-24T01:40:19.169Z,97.53
2017-03-24T01:40:29.267Z,97.53
2017-03-24T01:40:39.358Z,97.63
2017-03-24T01:40:49.163Z,97.63
2017-03-24T01:40:59.253Z,97.72
2017-03-24T01:41:09.056Z,97.81
2017-03-24T01:41:19.144Z,97.81
2017-03-24T01:41:29.232Z,97.81
2017-03-24T01:41:39.041Z,97.81
2017-03-24T01:41:49.138Z,97.81
2017-03-24T01:41:59.238Z,97.72
2017-03-24T01:42:09.339Z,97.63
2017-03-24T01:42:19.432Z,97.53
2017-03-24T01:42:29.530Z,97.44
2017-03-24T01:42:39.630Z,97.44
2017-03-24T01:42:49.730Z,97.34
2017-03-24T01:42:59.830Z,97.34
2017-03-24T01:43:09.921Z,97.34
2017-03-24T01:43:20.024Z,97.44
2017-03-24T01:43:30.115Z,97.53
2017-03-24T01:43:39.927Z,97.53
2017-03-24T01:43:50.029Z,97.53
2017-03-24T01:43:59.833Z,97.53
2017-03-24T01:44:09.657Z,97.53
2017-03-24T01:44:19.757Z,97.53
2017-03-24T01:44:29.858Z,97.63
2017-03-24T01:44:39.951Z,97.72
2017-03-24T01:44:50.047Z,97.81
2017-03-24T01:45:00.143Z,97.91
2017-03-24T01:45:10.240Z,98
2017-03-24T01:45:20.335Z,98.1
2017-03-24T01:45:30.424Z,98.19
2017-03-24T01:45:40.222Z,98.19
2017-03-24T01:45:50.303Z,98.19
2017-03-24T01:46:00.393Z,98.19
2017-03-24T01:46:10.196Z,98.19
2017-03-24T01:46:20.291Z,98.1
2017-03-24T01:46:30.377Z,98.1
2017-03-24T01:46:39.894Z,98.1
2017-03-24T01:46:49.701Z,98.1
2017-03-24T01:46:59.793Z,98
2017-03-24T01:47:09.896Z,98
2017-03-24T01:47:19.706Z,98
2017-03-24T01:47:29.518Z,98
2017-03-24T01:47:39.321Z,98
2017-03-24T01:47:49.427Z,98
2017-03-24T01:47:59.238Z,98
2017-03-24T01:48:09.329Z,98.1
2017-03-24T01:48:19.423Z,98.1
2017-03-24T01:48:29.524Z,98.19
2017-03-24T01:48:39.623Z,98.28
2017-03-24T01:48:49.718Z,98.28
2017-03-24T01:48:59.822Z,98.38
2017-03-24T01:49:09.933Z,98.38
2017-03-24T01:49:20.029Z,98.38
2017-03-24T01:49:30.130Z,98.38
2017-03-24T01:49:40.269Z,98.38
2017-03-24T01:49:50.088Z,98.38
2017-03-24T01:50:00.183Z,98.47
2017-03-24T01:50:09.694Z,98.47
2017-03-24T01:50:19.781Z,98.57
2017-03-24T01:50:29.870Z,98.57
2017-03-24T01:50:39.709Z,98.66
2017-03-24T01:50:49.805Z,98.66
2017-03-24T01:50:59.898Z,98.66
2017-03-24T01:51:09.707Z,98.66
2017-03-24T01:51:19.510Z,98.66
2017-03-24T01:51:29.603Z,98.66
2017-03-24T01:51:39.692Z,98.66
2017-03-24T01:51:49.781Z,98.66
2017-03-24T01:51:59.873Z,98.57
2017-03-24T01:52:09.971Z,98.57
2017-03-24T01:52:19.775Z,98.57
2017-03-24T01:52:29.873Z,98.57
2017-03-24T01:52:39.968Z,98.47
2017-03-24T01:52:50.067Z,98.38
2017-03-24T01:53:00.161Z,98.28
2017-03-24T01:53:10.261Z,98.19
2017-03-24T01:53:20.070Z,98.1
2017-03-24T01:53:29.925Z,98.1
2017-03-24T01:53:39.732Z,98
2017-03-24T01:53:49.829Z,97.91
2017-03-24T01:53:59.925Z,97.81
2017-03-24T01:54:10.062Z,97.72
2017-03-24T01:54:20.160Z,97.53
2017-03-24T01:54:29.684Z,97.44
2017-03-24T01:54:39.201Z,97.34
2017-03-24T01:54:49.294Z,97.25
2017-03-24T01:54:59.396Z,97.25
2017-03-24T01:55:09.494Z,97.15
2017-03-24T01:55:19.585Z,97.15
2017-03-24T01:55:29.669Z,97.06
2017-03-24T01:55:39.765Z,97.06
2017-03-24T01:55:49.859Z,97.15
2017-03-24T01:55:59.946Z,97.15
2017-03-24T01:56:10.037Z,97.15
2017-03-24T01:56:20.137Z,97.06
2017-03-24T01:56:30.226Z,97.06
2017-03-24T01:56:40.318Z,96.96
2017-03-24T01:56:50.122Z,0
2017-03-24T01:57:00.209Z,0
2017-03-24T01:57:09.727Z,0
2017-03-24T01:57:19.529Z,0
2017-03-24T01:57:29.627Z,0
2017-03-24T01:57:39.730Z,0
2017-03-24T01:57:49.834Z,0
2017-03-24T01:57:59.933Z,0
2017-03-24T01:58:09.736Z,0
2017-03-24T01:58:19.548Z,0
2017-03-24T01:58:29.649Z,12.5
2017-03-24T01:58:39.749Z,0
2017-03-24T01:58:49.849Z,0
2017-03-24T01:58:59.374Z,0
2017-03-24T01:59:09.467Z,0
2017-03-24T01:59:19.570Z,0
2017-03-24T01:59:29.674Z,0
2017-03-24T01:59:39.775Z,0
2017-03-24T01:59:49.867Z,0
2017-03-24T01:59:59.677Z,0
2017-03-24T02:00:09.479Z,0
2017-03-24T02:00:19.280Z,0
2017-03-24T02:00:29.375Z,0
2017-03-24T02:00:39.466Z,0
2017-03-24T02:00:49.565Z,0
2017-03-24T02:00:59.087Z,0
2017-03-24T02:01:09.178Z,0
2017-03-24T02:01:18.985Z,0
2017-03-24T02:01:29.077Z,0.1
2017-03-24T02:01:39.171Z,0
2017-03-24T02:01:48.976Z,0
2017-03-24T02:01:58.794Z,0
2017-03-24T02:02:08.609Z,0
2017-03-24T02:02:18.701Z,0.39
2017-03-24T02:02:28.794Z,0
2017-03-24T02:02:38.887Z,0
2017-03-24T02:02:48.178Z,0
2017-03-24T02:02:57.710Z,0
2017-03-24T02:03:07.814Z,0
2017-03-24T02:03:17.910Z,0
2017-03-24T02:03:27.726Z,0
2017-03-24T02:03:37.846Z,0
2017-03-24T02:03:47.647Z,0
2017-03-24T02:03:57.453Z,0
2017-03-24T02:04:07.592Z,0
2017-03-24T02:04:17.402Z,0
2017-03-24T02:04:27.506Z,0
2017-03-24T02:04:37.603Z,0
2017-03-24T02:04:47.708Z,0
2017-03-24T02:04:57.814Z,0
2017-03-24T02:05:07.898Z,0
2017-03-24T02:05:17.989Z,0
2017-03-24T02:05:28.076Z,0
2017-03-24T02:05:37.875Z,0
2017-03-24T02:05:47.966Z,0
2017-03-24T02:05:58.057Z,0
2017-03-24T02:06:07.866Z,0.39
2017-03-24T02:06:17.955Z,0
2017-03-24T02:06:27.761Z,0.39
2017-03-24T02:06:37.857Z,0
2017-03-24T02:06:47.944Z,0
2017-03-24T02:06:58.030Z,0
2017-03-24T02:07:08.122Z,0
2017-03-24T02:07:17.927Z,0
2017-03-24T02:07:28.025Z,0
2017-03-24T02:07:37.828Z,0
2017-03-24T02:07:47.633Z,0
2017-03-24T02:07:57.731Z,0
2017-03-24T02:08:07.825Z,0
2017-03-24T02:08:17.346Z,0
2017-03-24T02:08:27.440Z,0
2017-03-24T02:08:37.542Z,0
2017-03-24T02:08:47.640Z,0
2017-03-24T02:08:57.741Z,0
2017-03-24T02:09:07.835Z,0
2017-03-24T02:09:17.695Z,0
2017-03-24T02:09:27.223Z,0
2017-03-24T02:09:37.035Z,0
2017-03-24T02:09:47.127Z,0
2017-03-24T02:09:57.221Z,0
2017-03-24T02:10:07.029Z,0
2017-03-24T02:10:17.137Z,0
2017-03-24T02:10:27.233Z,0
2017-03-24T02:10:37.052Z,0
2017-03-24T02:10:46.853Z,3.12